sensor_id;sensor_type;location;lat;lon;timestamp;pressure;altitude;pressure_sealevel;temperature;humidity
31044;BME280;17710;52.520;13.352;2024-03-07T00:00:41;102312.06;;;12.20;68.96
31044;BME280;17710;52.520;13.352;2024-03-07T00:03:08;102310.53;;;12.07;69.56
31044;BME280;17710;52.520;13.352;2024-03-07T00:05:34;102318.16;;;12.25;69.20
31044;BME280;17710;52.520;13.352;2024-03-07T00:08:01;102299.69;;;12.19;69.07
31044;BME280;17710;52.520;13.352;2024-03-07T00:10:28;102314.72;;;12.20;69.11
31044;BME280;17710;52.520;13.352;2024-03-07T00:12:56;102307.69;;;12.16;69.25
31044;BME280;17710;52.520;13.352;2024-03-07T00:15:23;102309.22;;;12.29;68.68
31044;BME280;17710;52.520;13.352;2024-03-07T00:17:49;102306.44;;;12.37;68.48
31044;BME280;17710;52.520;13.352;2024-03-07T00:20:16;102309.19;;;12.32;68.55
31044;BME280;17710;52.520;13.352;2024-03-07T00:22:44;102312.94;;;12.19;68.69
31044;BME280;17710;52.520;13.352;2024-03-07T00:25:11;102308.31;;;12.30;68.64
31044;BME280;17710;52.520;13.352;2024-03-07T00:27:40;102300.50;;;12.24;68.73
31044;BME280;17710;52.520;13.352;2024-03-07T00:30:08;102309.44;;;12.17;68.80
31044;BME280;17710;52.520;13.352;2024-03-07T00:32:35;102311.94;;;12.26;68.42
31044;BME280;17710;52.520;13.352;2024-03-07T00:35:05;102308.47;;;12.23;68.54
31044;BME280;17710;52.520;13.352;2024-03-07T00:37:34;102308.44;;;12.24;68.45
31044;BME280;17710;52.520;13.352;2024-03-07T00:40:01;102305.81;;;12.21;68.49
31044;BME280;17710;52.520;13.352;2024-03-07T00:42:28;102303.00;;;12.32;68.08
31044;BME280;17710;52.520;13.352;2024-03-07T00:44:57;102311.13;;;12.21;68.09
31044;BME280;17710;52.520;13.352;2024-03-07T00:47:25;102304.94;;;12.21;68.02
31044;BME280;17710;52.520;13.352;2024-03-07T00:49:52;102304.38;;;12.04;68.73
31044;BME280;17710;52.520;13.352;2024-03-07T00:52:19;102303.44;;;12.08;68.54
31044;BME280;17710;52.520;13.352;2024-03-07T00:54:45;102312.09;;;12.17;68.28
31044;BME280;17710;52.520;13.352;2024-03-07T00:57:11;102301.41;;;12.22;67.99
31044;BME280;17710;52.520;13.352;2024-03-07T00:59:38;102299.63;;;12.24;67.98
31044;BME280;17710;52.520;13.352;2024-03-07T01:02:05;102303.34;;;12.14;68.18
31044;BME280;17710;52.520;13.352;2024-03-07T01:04:33;102297.19;;;12.10;67.84
31044;BME280;17710;52.520;13.352;2024-03-07T01:07:00;102294.69;;;12.03;67.94
31044;BME280;17710;52.520;13.352;2024-03-07T01:09:27;102301.75;;;12.02;68.31
31044;BME280;17710;52.520;13.352;2024-03-07T01:11:54;102293.59;;;12.14;67.89
31044;BME280;17710;52.520;13.352;2024-03-07T01:14:21;102301.47;;;12.19;67.45
31044;BME280;17710;52.520;13.352;2024-03-07T01:16:48;102302.34;;;12.19;67.46
31044;BME280;17710;52.520;13.352;2024-03-07T01:19:15;102294.91;;;11.89;68.86
31044;BME280;17710;52.520;13.352;2024-03-07T01:21:42;102297.72;;;11.80;69.30
31044;BME280;17710;52.520;13.352;2024-03-07T01:24:09;102297.09;;;12.15;67.97
31044;BME280;17710;52.520;13.352;2024-03-07T01:26:36;102303.22;;;12.20;67.21
31044;BME280;17710;52.520;13.352;2024-03-07T01:29:02;102299.00;;;12.08;67.66
31044;BME280;17710;52.520;13.352;2024-03-07T01:31:29;102301.91;;;11.93;68.00
31044;BME280;17710;52.520;13.352;2024-03-07T01:33:56;102299.28;;;11.93;67.28
31044;BME280;17710;52.520;13.352;2024-03-07T01:36:22;102298.00;;;12.15;66.52
31044;BME280;17710;52.520;13.352;2024-03-07T01:38:52;102297.28;;;12.07;66.84
31044;BME280;17710;52.520;13.352;2024-03-07T01:41:19;102296.19;;;12.17;65.97
31044;BME280;17710;52.520;13.352;2024-03-07T01:43:46;102303.28;;;12.17;65.56
31044;BME280;17710;52.520;13.352;2024-03-07T01:46:15;102299.81;;;12.13;65.42
31044;BME280;17710;52.520;13.352;2024-03-07T01:48:42;102285.28;;;11.85;66.13
31044;BME280;17710;52.520;13.352;2024-03-07T01:51:09;102295.97;;;11.77;66.33
31044;BME280;17710;52.520;13.352;2024-03-07T01:53:36;102296.00;;;11.76;66.49
31044;BME280;17710;52.520;13.352;2024-03-07T01:56:04;102298.41;;;11.91;66.45
31044;BME280;17710;52.520;13.352;2024-03-07T01:58:31;102297.13;;;11.59;66.47
31044;BME280;17710;52.520;13.352;2024-03-07T02:00:57;102310.44;;;11.53;66.45
31044;BME280;17710;52.520;13.352;2024-03-07T02:03:24;102302.31;;;11.66;66.27
31044;BME280;17710;52.520;13.352;2024-03-07T02:05:51;102301.34;;;11.73;65.77
31044;BME280;17710;52.520;13.352;2024-03-07T02:08:22;102288.91;;;11.78;65.87
31044;BME280;17710;52.520;13.352;2024-03-07T02:10:48;102292.53;;;11.74;65.61
31044;BME280;17710;52.520;13.352;2024-03-07T02:13:17;102294.41;;;11.63;65.73
31044;BME280;17710;52.520;13.352;2024-03-07T02:15:43;102293.19;;;11.86;64.44
31044;BME280;17710;52.520;13.352;2024-03-07T02:18:10;102288.19;;;11.67;65.33
31044;BME280;17710;52.520;13.352;2024-03-07T02:20:36;102288.22;;;11.64;65.50
31044;BME280;17710;52.520;13.352;2024-03-07T02:23:04;102283.13;;;11.51;65.42
31044;BME280;17710;52.520;13.352;2024-03-07T02:25:31;102283.59;;;11.19;66.84
31044;BME280;17710;52.520;13.352;2024-03-07T02:27:57;102274.38;;;11.48;66.43
31044;BME280;17710;52.520;13.352;2024-03-07T02:30:24;102284.09;;;11.46;66.48
31044;BME280;17710;52.520;13.352;2024-03-07T02:32:50;102276.34;;;11.31;66.94
31044;BME280;17710;52.520;13.352;2024-03-07T02:35:20;102272.06;;;11.24;67.35
31044;BME280;17710;52.520;13.352;2024-03-07T02:37:46;102271.91;;;11.34;67.11
31044;BME280;17710;52.520;13.352;2024-03-07T02:40:15;102270.94;;;11.41;66.56
31044;BME280;17710;52.520;13.352;2024-03-07T02:42:42;102273.59;;;11.38;66.68
31044;BME280;17710;52.520;13.352;2024-03-07T02:45:08;102276.16;;;11.46;66.70
31044;BME280;17710;52.520;13.352;2024-03-07T02:47:38;102271.06;;;11.32;67.10
31044;BME280;17710;52.520;13.352;2024-03-07T02:50:07;102273.72;;;11.29;66.76
31044;BME280;17710;52.520;13.352;2024-03-07T02:52:34;102281.63;;;11.35;66.53
31044;BME280;17710;52.520;13.352;2024-03-07T02:55:01;102269.44;;;11.22;66.74
31044;BME280;17710;52.520;13.352;2024-03-07T02:57:30;102270.25;;;11.29;66.87
31044;BME280;17710;52.520;13.352;2024-03-07T02:59:56;102275.84;;;11.06;67.58
31044;BME280;17710;52.520;13.352;2024-03-07T03:02:22;102274.00;;;11.11;67.29
31044;BME280;17710;52.520;13.352;2024-03-07T03:04:49;102278.56;;;10.98;67.64
31044;BME280;17710;52.520;13.352;2024-03-07T03:07:15;102270.72;;;10.94;67.78
31044;BME280;17710;52.520;13.352;2024-03-07T03:09:42;102274.16;;;11.00;68.00
31044;BME280;17710;52.520;13.352;2024-03-07T03:12:09;102277.78;;;10.92;67.97
31044;BME280;17710;52.520;13.352;2024-03-07T03:14:37;102278.75;;;10.83;68.33
31044;BME280;17710;52.520;13.352;2024-03-07T03:17:03;102270.78;;;10.88;67.86
31044;BME280;17710;52.520;13.352;2024-03-07T03:19:30;102276.06;;;10.89;67.98
31044;BME280;17710;52.520;13.352;2024-03-07T03:21:56;102275.22;;;10.86;67.82
31044;BME280;17710;52.520;13.352;2024-03-07T03:24:23;102280.56;;;10.81;68.67
31044;BME280;17710;52.520;13.352;2024-03-07T03:26:50;102284.16;;;10.74;68.70
31044;BME280;17710;52.520;13.352;2024-03-07T03:29:17;102278.78;;;10.82;68.28
31044;BME280;17710;52.520;13.352;2024-03-07T03:31:44;102286.97;;;10.62;68.98
31044;BME280;17710;52.520;13.352;2024-03-07T03:34:11;102294.75;;;10.71;68.41
31044;BME280;17710;52.520;13.352;2024-03-07T03:36:37;102288.66;;;10.67;68.72
31044;BME280;17710;52.520;13.352;2024-03-07T03:39:04;102287.72;;;10.71;68.63
31044;BME280;17710;52.520;13.352;2024-03-07T03:41:32;102291.44;;;10.54;69.37
31044;BME280;17710;52.520;13.352;2024-03-07T03:43:58;102298.38;;;10.64;68.94
31044;BME280;17710;52.520;13.352;2024-03-07T03:46:24;102288.66;;;10.69;68.80
31044;BME280;17710;52.520;13.352;2024-03-07T03:48:52;102288.44;;;10.84;68.06
31044;BME280;17710;52.520;13.352;2024-03-07T03:51:18;102291.38;;;10.60;68.19
31044;BME280;17710;52.520;13.352;2024-03-07T03:53:47;102297.53;;;10.60;68.60
31044;BME280;17710;52.520;13.352;2024-03-07T03:56:14;102288.59;;;10.73;68.15
31044;BME280;17710;52.520;13.352;2024-03-07T03:58:40;102292.25;;;10.59;68.39
31044;BME280;17710;52.520;13.352;2024-03-07T04:01:08;102294.22;;;10.42;68.74
31044;BME280;17710;52.520;13.352;2024-03-07T04:03:38;102298.66;;;10.39;68.72
31044;BME280;17710;52.520;13.352;2024-03-07T04:06:06;102296.94;;;10.34;69.27
31044;BME280;17710;52.520;13.352;2024-03-07T04:08:32;102299.50;;;10.43;68.90
31044;BME280;17710;52.520;13.352;2024-03-07T04:11:02;102303.22;;;10.24;69.12
31044;BME280;17710;52.520;13.352;2024-03-07T04:13:28;102302.38;;;10.13;69.77
31044;BME280;17710;52.520;13.352;2024-03-07T04:15:55;102303.22;;;10.22;68.92
31044;BME280;17710;52.520;13.352;2024-03-07T04:18:22;102303.31;;;10.10;69.05
31044;BME280;17710;52.520;13.352;2024-03-07T04:20:48;102305.03;;;10.17;68.55
31044;BME280;17710;52.520;13.352;2024-03-07T04:23:17;102301.53;;;10.17;69.03
31044;BME280;17710;52.520;13.352;2024-03-07T04:25:45;102305.88;;;10.24;68.56
31044;BME280;17710;52.520;13.352;2024-03-07T04:28:12;102304.94;;;10.28;68.37
31044;BME280;17710;52.520;13.352;2024-03-07T04:30:38;102304.84;;;10.37;67.88
31044;BME280;17710;52.520;13.352;2024-03-07T04:33:04;102304.88;;;10.31;67.73
31044;BME280;17710;52.520;13.352;2024-03-07T04:35:31;102305.00;;;10.22;67.97
31044;BME280;17710;52.520;13.352;2024-03-07T04:37:57;102298.88;;;10.12;67.68
31044;BME280;17710;52.520;13.352;2024-03-07T04:40:25;102298.88;;;10.17;67.63
31044;BME280;17710;52.520;13.352;2024-03-07T04:42:51;102307.66;;;10.19;67.65
31044;BME280;17710;52.520;13.352;2024-03-07T04:45:18;102308.66;;;9.98;68.22
31044;BME280;17710;52.520;13.352;2024-03-07T04:47:46;102310.34;;;10.10;67.69
31044;BME280;17710;52.520;13.352;2024-03-07T04:50:13;102311.31;;;9.98;68.22
31044;BME280;17710;52.520;13.352;2024-03-07T04:52:42;102309.53;;;10.03;67.79
31044;BME280;17710;52.520;13.352;2024-03-07T04:55:09;102317.56;;;9.86;67.91
31044;BME280;17710;52.520;13.352;2024-03-07T04:57:37;102314.88;;;9.94;68.30
31044;BME280;17710;52.520;13.352;2024-03-07T05:00:06;102311.34;;;9.95;67.58
31044;BME280;17710;52.520;13.352;2024-03-07T05:02:37;102319.34;;;9.86;67.63
31044;BME280;17710;52.520;13.352;2024-03-07T05:05:04;102317.50;;;9.95;67.46
31044;BME280;17710;52.520;13.352;2024-03-07T05:07:30;102318.44;;;9.90;67.74
31044;BME280;17710;52.520;13.352;2024-03-07T05:09:56;102318.41;;;9.96;66.67
31044;BME280;17710;52.520;13.352;2024-03-07T05:12:23;102321.19;;;9.73;68.01
31044;BME280;17710;52.520;13.352;2024-03-07T05:14:51;102327.22;;;9.92;67.40
31044;BME280;17710;52.520;13.352;2024-03-07T05:17:19;102323.81;;;9.75;67.07
31044;BME280;17710;52.520;13.352;2024-03-07T05:19:45;102333.47;;;9.80;66.99
31044;BME280;17710;52.520;13.352;2024-03-07T05:22:12;102330.81;;;9.80;66.81
31044;BME280;17710;52.520;13.352;2024-03-07T05:24:41;102329.16;;;9.69;67.30
31044;BME280;17710;52.520;13.352;2024-03-07T05:27:08;102328.22;;;9.77;67.14
31044;BME280;17710;52.520;13.352;2024-03-07T05:29:36;102336.13;;;9.77;66.76
31044;BME280;17710;52.520;13.352;2024-03-07T05:32:22;102336.97;;;9.79;66.78
31044;BME280;17710;52.520;13.352;2024-03-07T05:34:50;102333.59;;;9.62;66.64
31044;BME280;17710;52.520;13.352;2024-03-07T05:37:18;102333.50;;;9.74;66.62
31044;BME280;17710;52.520;13.352;2024-03-07T05:39:46;102328.22;;;9.74;66.71
31044;BME280;17710;52.520;13.352;2024-03-07T05:42:13;102335.31;;;9.69;66.34
31044;BME280;17710;52.520;13.352;2024-03-07T05:44:40;102335.28;;;9.74;66.56
31044;BME280;17710;52.520;13.352;2024-03-07T05:47:06;102339.72;;;9.66;66.79
31044;BME280;17710;52.520;13.352;2024-03-07T05:49:35;102348.53;;;9.65;66.50
31044;BME280;17710;52.520;13.352;2024-03-07T05:52:02;102340.56;;;9.72;65.93
31044;BME280;17710;52.520;13.352;2024-03-07T05:54:29;102344.91;;;9.81;65.55
31044;BME280;17710;52.520;13.352;2024-03-07T05:56:55;102348.47;;;9.77;65.50
31044;BME280;17710;52.520;13.352;2024-03-07T05:59:22;102347.72;;;9.56;65.68
31044;BME280;17710;52.520;13.352;2024-03-07T06:01:48;102349.34;;;9.76;65.21
31044;BME280;17710;52.520;13.352;2024-03-07T06:04:16;102351.00;;;9.87;64.84
31044;BME280;17710;52.520;13.352;2024-03-07T06:06:44;102349.34;;;9.76;65.01
31044;BME280;17710;52.520;13.352;2024-03-07T06:09:13;102351.16;;;9.71;65.33
31044;BME280;17710;52.520;13.352;2024-03-07T06:11:40;102353.91;;;9.46;65.97
31044;BME280;17710;52.520;13.352;2024-03-07T06:14:08;102354.66;;;9.70;65.44
31044;BME280;17710;52.520;13.352;2024-03-07T06:16:37;102356.53;;;9.51;66.05
31044;BME280;17710;52.520;13.352;2024-03-07T06:19:07;102362.75;;;9.44;65.75
31044;BME280;17710;52.520;13.352;2024-03-07T06:21:35;102363.63;;;9.43;66.12
31044;BME280;17710;52.520;13.352;2024-03-07T06:24:04;102361.84;;;9.39;65.73
31044;BME280;17710;52.520;13.352;2024-03-07T06:26:33;102363.59;;;9.50;65.33
31044;BME280;17710;52.520;13.352;2024-03-07T06:29:16;102361.84;;;9.45;65.33
31044;BME280;17710;52.520;13.352;2024-03-07T06:31:51;102365.34;;;9.50;65.28
31044;BME280;17710;52.520;13.352;2024-03-07T06:34:19;102366.09;;;9.70;63.94
31044;BME280;17710;52.520;13.352;2024-03-07T06:36:45;102364.38;;;9.62;63.31
31044;BME280;17710;52.520;13.352;2024-03-07T06:39:13;102364.38;;;9.65;63.56
31044;BME280;17710;52.520;13.352;2024-03-07T06:41:39;102372.19;;;9.81;62.99
31044;BME280;17710;52.520;13.352;2024-03-07T06:44:06;102369.63;;;9.66;63.25
31044;BME280;17710;52.520;13.352;2024-03-07T06:46:34;102367.81;;;9.74;62.95
31044;BME280;17710;52.520;13.352;2024-03-07T06:49:01;102376.53;;;9.88;61.45
31044;BME280;17710;52.520;13.352;2024-03-07T06:51:27;102382.56;;;10.06;61.35
31044;BME280;17710;52.520;13.352;2024-03-07T06:53:54;102380.84;;;9.98;60.40
31044;BME280;17710;52.520;13.352;2024-03-07T06:56:22;102389.59;;;10.10;60.38
31044;BME280;17710;52.520;13.352;2024-03-07T06:58:49;102373.78;;;10.04;59.84
31044;BME280;17710;52.520;13.352;2024-03-07T07:01:16;102384.38;;;10.00;59.72
31044;BME280;17710;52.520;13.352;2024-03-07T07:03:46;102379.78;;;10.30;58.96
31044;BME280;17710;52.520;13.352;2024-03-07T07:06:13;102380.78;;;10.08;57.98
31044;BME280;17710;52.520;13.352;2024-03-07T07:08:40;102389.47;;;10.26;58.58
31044;BME280;17710;52.520;13.352;2024-03-07T07:11:06;102388.38;;;10.52;57.75
31044;BME280;17710;52.520;13.352;2024-03-07T07:13:34;102391.69;;;10.72;56.87
31044;BME280;17710;52.520;13.352;2024-03-07T07:16:02;102398.88;;;10.61;55.76
31044;BME280;17710;52.520;13.352;2024-03-07T07:18:28;102396.13;;;10.71;55.10
31044;BME280;17710;52.520;13.352;2024-03-07T07:20:55;102390.94;;;10.59;55.15
31044;BME280;17710;52.520;13.352;2024-03-07T07:23:23;102387.22;;;10.82;54.61
31044;BME280;17710;52.520;13.352;2024-03-07T07:25:49;102383.19;;;10.43;54.10
31044;BME280;17710;52.520;13.352;2024-03-07T07:28:16;102389.25;;;10.51;53.60
31044;BME280;17710;52.520;13.352;2024-03-07T07:30:43;102391.69;;;10.73;53.64
31044;BME280;17710;52.520;13.352;2024-03-07T07:33:13;102393.47;;;10.70;53.49
31044;BME280;17710;52.520;13.352;2024-03-07T07:35:39;102396.13;;;10.71;53.24
31044;BME280;17710;52.520;13.352;2024-03-07T07:38:06;102396.13;;;10.70;52.99
31044;BME280;17710;52.520;13.352;2024-03-07T07:40:35;102385.53;;;10.71;52.26
31044;BME280;17710;52.520;13.352;2024-03-07T07:43:02;102383.31;;;11.13;50.67
31044;BME280;17710;52.520;13.352;2024-03-07T07:45:31;102386.94;;;11.03;50.49
31044;BME280;17710;52.520;13.352;2024-03-07T07:48:02;102390.94;;;10.59;51.43
31044;BME280;17710;52.520;13.352;2024-03-07T07:50:29;102392.38;;;10.91;50.68
31044;BME280;17710;52.520;13.352;2024-03-07T07:52:56;102384.41;;;10.95;50.13
31044;BME280;17710;52.520;13.352;2024-03-07T07:55:25;102381.66;;;11.03;50.34
31044;BME280;17710;52.520;13.352;2024-03-07T07:57:53;102387.06;;;10.95;49.28
31044;BME280;17710;52.520;13.352;2024-03-07T08:00:21;102378.78;;;11.24;49.13
31044;BME280;17710;52.520;13.352;2024-03-07T08:02:52;102384.13;;;11.19;48.30
31044;BME280;17710;52.520;13.352;2024-03-07T08:05:20;102386.59;;;11.35;48.31
31044;BME280;17710;52.520;13.352;2024-03-07T08:07:48;102374.69;;;11.68;47.75
31044;BME280;17710;52.520;13.352;2024-03-07T08:10:16;102378.00;;;11.82;47.09
31044;BME280;17710;52.520;13.352;2024-03-07T08:12:43;102388.25;;;12.08;46.24
31044;BME280;17710;52.520;13.352;2024-03-07T08:15:09;102384.75;;;12.04;45.33
31044;BME280;17710;52.520;13.352;2024-03-07T08:17:39;102379.31;;;12.13;44.61
31044;BME280;17710;52.520;13.352;2024-03-07T08:20:06;102376.78;;;12.06;43.91
31044;BME280;17710;52.520;13.352;2024-03-07T08:22:38;102382.06;;;12.07;44.78
31044;BME280;17710;52.520;13.352;2024-03-07T08:25:07;102374.56;;;12.32;44.20
31044;BME280;17710;52.520;13.352;2024-03-07T08:27:34;102379.94;;;12.27;44.91
31044;BME280;17710;52.520;13.352;2024-03-07T08:30:01;102384.63;;;12.10;44.23
31044;BME280;17710;52.520;13.352;2024-03-07T08:32:27;102379.63;;;12.46;43.81
31044;BME280;17710;52.520;13.352;2024-03-07T08:34:53;102381.00;;;12.68;42.71
31044;BME280;17710;52.520;13.352;2024-03-07T08:37:20;102388.00;;;12.72;42.77
31044;BME280;17710;52.520;13.352;2024-03-07T08:39:48;102386.38;;;12.65;41.02
31044;BME280;17710;52.520;13.352;2024-03-07T08:42:17;102378.28;;;12.72;41.44
31044;BME280;17710;52.520;13.352;2024-03-07T08:44:44;102386.53;;;12.56;42.01
31044;BME280;17710;52.520;13.352;2024-03-07T08:47:11;102390.59;;;12.75;41.61
31044;BME280;17710;52.520;13.352;2024-03-07T08:49:37;102382.09;;;13.02;40.98
31044;BME280;17710;52.520;13.352;2024-03-07T08:52:05;102385.38;;;13.18;40.03
31044;BME280;17710;52.520;13.352;2024-03-07T08:54:31;102389.81;;;13.16;39.88
31044;BME280;17710;52.520;13.352;2024-03-07T08:57:00;102392.50;;;13.14;40.04
31044;BME280;17710;52.520;13.352;2024-03-07T08:59:26;102385.41;;;13.16;40.04
31044;BME280;17710;52.520;13.352;2024-03-07T09:01:52;102391.28;;;13.32;39.64
31044;BME280;17710;52.520;13.352;2024-03-07T09:04:19;102383.78;;;13.06;39.58
31044;BME280;17710;52.520;13.352;2024-03-07T09:06:47;102389.19;;;13.46;38.53
31044;BME280;17710;52.520;13.352;2024-03-07T09:09:14;102389.53;;;13.30;37.61
31044;BME280;17710;52.520;13.352;2024-03-07T09:11:43;102388.50;;;13.37;37.72
31044;BME280;17710;52.520;13.352;2024-03-07T09:14:11;102383.91;;;13.45;38.08
31044;BME280;17710;52.520;13.352;2024-03-07T09:16:37;102383.69;;;13.55;37.28
31044;BME280;17710;52.520;13.352;2024-03-07T09:19:05;102380.84;;;13.65;37.03
31044;BME280;17710;52.520;13.352;2024-03-07T09:21:31;102382.75;;;13.58;36.44
31044;BME280;17710;52.520;13.352;2024-03-07T09:23:58;102377.94;;;13.34;36.85
31044;BME280;17710;52.520;13.352;2024-03-07T09:26:25;102380.16;;;13.53;36.45
31044;BME280;17710;52.520;13.352;2024-03-07T09:28:51;102388.25;;;13.49;36.66
31044;BME280;17710;52.520;13.352;2024-03-07T09:31:20;102377.19;;;13.27;36.17
31044;BME280;17710;52.520;13.352;2024-03-07T09:33:47;102379.91;;;13.26;36.13
31044;BME280;17710;52.520;13.352;2024-03-07T09:36:15;102379.25;;;13.56;36.35
31044;BME280;17710;52.520;13.352;2024-03-07T09:38:42;102380.38;;;13.44;35.91
31044;BME280;17710;52.520;13.352;2024-03-07T09:41:08;102371.28;;;13.93;35.44
31044;BME280;17710;52.520;13.352;2024-03-07T09:43:35;102383.28;;;14.11;34.81
31044;BME280;17710;52.520;13.352;2024-03-07T09:46:05;102375.81;;;13.89;34.72
31044;BME280;17710;52.520;13.352;2024-03-07T09:48:33;102378.19;;;14.02;34.70
31044;BME280;17710;52.520;13.352;2024-03-07T09:51:01;102380.22;;;13.90;34.28
31044;BME280;17710;52.520;13.352;2024-03-07T09:53:28;102369.97;;;13.74;34.14
31044;BME280;17710;52.520;13.352;2024-03-07T09:55:56;102369.75;;;13.84;34.43
31044;BME280;17710;52.520;13.352;2024-03-07T09:58:24;102362.81;;;13.39;34.64
31044;BME280;17710;52.520;13.352;2024-03-07T10:00:53;102371.09;;;13.64;34.23
31044;BME280;17710;52.520;13.352;2024-03-07T10:03:20;102358.91;;;13.55;34.06
31044;BME280;17710;52.520;13.352;2024-03-07T10:05:49;102355.53;;;13.85;34.25
31044;BME280;17710;52.520;13.352;2024-03-07T10:08:18;102358.28;;;13.82;33.87
31044;BME280;17710;52.520;13.352;2024-03-07T10:10:44;102353.66;;;14.26;33.53
31044;BME280;17710;52.520;13.352;2024-03-07T10:13:12;102362.69;;;14.19;32.76
31044;BME280;17710;52.520;13.352;2024-03-07T10:15:39;102353.28;;;14.06;32.69
31044;BME280;17710;52.520;13.352;2024-03-07T10:18:08;102358.81;;;13.96;33.03
31044;BME280;17710;52.520;13.352;2024-03-07T10:20:36;102364.19;;;13.93;33.23
31044;BME280;17710;52.520;13.352;2024-03-07T10:23:06;102362.19;;;14.40;32.73
31044;BME280;17710;52.520;13.352;2024-03-07T10:25:33;102352.84;;;14.24;32.47
31044;BME280;17710;52.520;13.352;2024-03-07T10:28:00;102354.00;;;14.12;32.02
31044;BME280;17710;52.520;13.352;2024-03-07T10:30:26;102358.63;;;13.67;32.38
31044;BME280;17710;52.520;13.352;2024-03-07T10:32:55;102356.44;;;13.46;32.65
31044;BME280;17710;52.520;13.352;2024-03-07T10:35:23;102353.59;;;13.13;32.83
31044;BME280;17710;52.520;13.352;2024-03-07T10:37:50;102351.66;;;13.22;33.14
31044;BME280;17710;52.520;13.352;2024-03-07T10:40:20;102343.38;;;13.37;32.85
31044;BME280;17710;52.520;13.352;2024-03-07T10:42:48;102324.78;;;13.37;32.48
31044;BME280;17710;52.520;13.352;2024-03-07T10:45:17;102336.59;;;13.22;32.38
31044;BME280;17710;52.520;13.352;2024-03-07T10:47:45;102341.81;;;13.27;32.60
31044;BME280;17710;52.520;13.352;2024-03-07T10:50:17;102329.88;;;13.46;32.06
31044;BME280;17710;52.520;13.352;2024-03-07T10:52:52;102328.06;;;13.85;31.85
31044;BME280;17710;52.520;13.352;2024-03-07T10:55:28;102332.44;;;13.89;31.77
31044;BME280;17710;52.520;13.352;2024-03-07T10:58:02;102333.94;;;13.62;31.53
31044;BME280;17710;52.520;13.352;2024-03-07T11:00:32;102337.91;;;13.81;31.40
31044;BME280;17710;52.520;13.352;2024-03-07T11:03:02;102334.69;;;13.69;31.41
31044;BME280;17710;52.520;13.352;2024-03-07T11:05:33;102332.81;;;13.72;31.38
31044;BME280;17710;52.520;13.352;2024-03-07T11:08:00;102336.56;;;13.65;31.27
31044;BME280;17710;52.520;13.352;2024-03-07T11:10:30;102324.34;;;13.56;31.08
31044;BME280;17710;52.520;13.352;2024-03-07T11:12:57;102329.41;;;13.67;31.11
31044;BME280;17710;52.520;13.352;2024-03-07T11:15:26;102333.81;;;13.68;31.04
31044;BME280;17710;52.520;13.352;2024-03-07T11:17:54;102328.28;;;13.77;30.90
31044;BME280;17710;52.520;13.352;2024-03-07T11:20:21;102327.25;;;13.84;30.93
31044;BME280;17710;52.520;13.352;2024-03-07T11:22:48;102323.63;;;13.50;31.48
31044;BME280;17710;52.520;13.352;2024-03-07T11:25:17;102321.44;;;13.67;31.03
31044;BME280;17710;52.520;13.352;2024-03-07T11:27:52;102315.34;;;13.64;30.63
31044;BME280;17710;52.520;13.352;2024-03-07T11:30:21;102314.69;;;13.52;30.86
31044;BME280;17710;52.520;13.352;2024-03-07T11:32:48;102306.41;;;13.66;31.16
31044;BME280;17710;52.520;13.352;2024-03-07T11:35:15;102304.44;;;13.74;31.63
31044;BME280;17710;52.520;13.352;2024-03-07T11:37:48;102304.53;;;13.71;31.63
31044;BME280;17710;52.520;13.352;2024-03-07T11:40:46;102288.22;;;13.85;31.00
31044;BME280;17710;52.520;13.352;2024-03-07T11:43:15;102294.53;;;13.81;31.26
31044;BME280;17710;52.520;13.352;2024-03-07T11:45:41;102295.09;;;13.58;31.90
31044;BME280;17710;52.520;13.352;2024-03-07T11:48:17;102304.06;;;13.52;31.70
31044;BME280;17710;52.520;13.352;2024-03-07T11:50:45;102301.09;;;13.66;31.78
31044;BME280;17710;52.520;13.352;2024-03-07T11:53:12;102297.94;;;13.50;31.93
31044;BME280;17710;52.520;13.352;2024-03-07T11:55:39;102287.78;;;13.68;32.24
31044;BME280;17710;52.520;13.352;2024-03-07T11:58:11;102281.69;;;13.64;31.79
31044;BME280;17710;52.520;13.352;2024-03-07T12:00:41;102287.13;;;13.58;31.78
31044;BME280;17710;52.520;13.352;2024-03-07T12:03:10;102280.56;;;13.73;32.15
31044;BME280;17710;52.520;13.352;2024-03-07T12:05:39;102287.22;;;13.53;31.91
31044;BME280;17710;52.520;13.352;2024-03-07T12:08:06;102273.78;;;13.60;31.49
31044;BME280;17710;52.520;13.352;2024-03-07T12:10:35;102270.97;;;13.67;31.34
31044;BME280;17710;52.520;13.352;2024-03-07T12:13:04;102277.31;;;13.60;31.67
31044;BME280;17710;52.520;13.352;2024-03-07T12:15:31;102268.34;;;13.66;32.38
31044;BME280;17710;52.520;13.352;2024-03-07T12:18:01;102266.66;;;13.63;32.91
31044;BME280;17710;52.520;13.352;2024-03-07T12:20:28;102266.94;;;13.86;32.75
31044;BME280;17710;52.520;13.352;2024-03-07T12:22:59;102255.03;;;13.67;32.34
31044;BME280;17710;52.520;13.352;2024-03-07T12:25:28;102251.91;;;13.85;32.36
31044;BME280;17710;52.520;13.352;2024-03-07T12:28:02;102255.41;;;13.87;31.73
31044;BME280;17710;52.520;13.352;2024-03-07T12:30:32;102252.13;;;13.78;31.71
31044;BME280;17710;52.520;13.352;2024-03-07T12:33:00;102246.53;;;13.88;31.24
31044;BME280;17710;52.520;13.352;2024-03-07T12:35:29;102245.84;;;13.80;31.60
31044;BME280;17710;52.520;13.352;2024-03-07T12:37:56;102248.34;;;13.86;31.58
31044;BME280;17710;52.520;13.352;2024-03-07T12:40:22;102250.84;;;13.92;31.67
31044;BME280;17710;52.520;13.352;2024-03-07T12:42:51;102240.41;;;14.19;31.11